createdAt,value
2018-03-02T00:00:01.690Z,1014.3
2018-03-02T00:15:01.748Z,1014.17
2018-03-02T00:30:03.814Z,1013.99
2018-03-02T00:46:01.255Z,1013.92
2018-03-02T00:56:04.701Z,1013.8
2018-03-02T01:01:01.556Z,1013.84
2018-03-02T01:16:02.638Z,1013.85
2018-03-02T01:31:01.546Z,1013.54
2018-03-02T01:36:01.528Z,1013.54
2018-03-02T01:46:06.505Z,1013.51
2018-03-02T01:56:06.504Z,1013.49
2018-03-02T02:11:01.622Z,1013.26
2018-03-02T02:21:03.604Z,1013.2
2018-03-02T02:31:02.498Z,1013.1
2018-03-02T02:41:06.558Z,1013.02
2018-03-02T02:51:03.626Z,1012.86
2018-03-02T03:01:05.669Z,1012.78
2018-03-02T03:11:04.687Z,1012.67
2018-03-02T03:26:03.505Z,1012.64
2018-03-02T03:41:01.521Z,1012.49
2018-03-02T03:52:02.482Z,1012.36
2018-03-02T04:02:06.501Z,1012.24
2018-03-02T04:17:02.519Z,1012.02
2018-03-02T04:22:02.512Z,1011.96
2018-03-02T04:37:05.615Z,1011.82
2018-03-02T04:47:02.529Z,1011.71
2018-03-02T04:57:02.479Z,1011.68
2018-03-02T05:02:02.472Z,1011.69
2018-03-02T05:17:01.515Z,1011.62
2018-03-02T05:22:01.572Z,1011.57
2018-03-02T05:32:01.604Z,1011.5
2018-03-02T05:37:01.625Z,1011.5
2018-03-02T05:42:01.502Z,1011.3
2018-03-02T05:47:01.542Z,1011.3
2018-03-02T05:57:01.533Z,1011.27
2018-03-02T06:12:01.414Z,1011.1
2018-03-02T06:27:01.462Z,1010.99
2018-03-02T06:42:01.534Z,1010.78
2018-03-02T06:52:01.588Z,1010.69
2018-03-02T06:57:01.551Z,1010.69
2018-03-02T07:02:01.554Z,1010.56
2018-03-02T07:12:01.592Z,1010.55
2018-03-02T07:17:01.580Z,1010.55
2018-03-02T07:22:01.555Z,1010.53
2018-03-02T07:27:01.628Z,1010.53
2018-03-02T07:32:01.581Z,1010.35
2018-03-02T07:42:01.557Z,1010.18
2018-03-02T07:47:01.548Z,1010.18
2018-03-02T07:57:01.747Z,1010.09
2018-03-02T08:07:01.532Z,1009.84
2018-03-02T08:12:01.577Z,1009.75
2018-03-02T08:17:01.617Z,1009.75
2018-03-02T08:22:01.558Z,1009.69
2018-03-02T08:27:01.612Z,1009.69
2018-03-02T08:32:01.533Z,1009.61
2018-03-02T08:37:01.537Z,1009.61
2018-03-02T08:47:01.753Z,1009.52
2018-03-02T09:02:01.655Z,1009.26
2018-03-02T09:17:01.545Z,1009.03
2018-03-02T09:32:01.644Z,1008.59
2018-03-02T09:37:01.692Z,1008.59
2018-03-02T09:42:01.402Z,1008.39
2018-03-02T09:47:01.419Z,1008.39
2018-03-02T09:52:01.402Z,1008.37
2018-03-02T10:02:01.384Z,1008.09
2018-03-02T10:12:01.305Z,1008.1
2018-03-02T10:17:01.294Z,1008.1
2018-03-02T10:22:01.369Z,1007.96
2018-03-02T10:32:01.302Z,1007.84
2018-03-02T10:47:01.327Z,1007.6
2018-03-02T10:52:01.326Z,1007.5
2018-03-02T10:57:01.346Z,1007.5
2018-03-02T11:02:01.397Z,1007.59
2018-03-02T11:07:01.324Z,1007.59
2018-03-02T11:12:01.332Z,1007.72
2018-03-02T11:17:01.356Z,1007.72
2018-03-02T11:22:01.423Z,1007.68
2018-03-02T11:27:01.398Z,1007.68
2018-03-02T11:32:01.304Z,1007.66
2018-03-02T11:42:01.393Z,1007.69
2018-03-02T11:47:01.463Z,1007.69
2018-03-02T12:07:01.293Z,1007.56
2018-03-02T12:22:01.327Z,1007.48
2018-03-02T12:27:01.291Z,1007.48
2018-03-02T12:42:01.389Z,1007.49
2018-03-02T13:02:01.331Z,1007.43
2018-03-02T13:07:01.346Z,1007.43
2018-03-02T13:25:03.225Z,1007.48
2018-03-02T13:35:01.004Z,1007.39
2018-03-02T13:40:01.064Z,1007.49
2018-03-02T13:45:01.070Z,1007.49
2018-03-02T13:50:01.091Z,1007.4
2018-03-02T13:55:01.110Z,1007.4
2018-03-02T14:00:01.081Z,1007.5
2018-03-02T14:15:01.067Z,1007.31
2018-03-02T14:20:01.119Z,1007.23
2018-03-02T14:25:01.167Z,1007.23
2018-03-02T14:30:01.075Z,1007.09
2018-03-02T14:40:01.111Z,1006.99
2018-03-02T14:45:01.081Z,1006.99
2018-03-02T15:00:01.077Z,1006.95
2018-03-02T15:15:01.063Z,1006.88
2018-03-02T15:20:01.047Z,1006.84
2018-03-02T15:25:01.098Z,1006.84
2018-03-02T15:30:01.118Z,1006.82
2018-03-02T15:35:01.064Z,1006.82
2018-03-02T15:40:01.014Z,1006.73
2018-03-02T15:45:01.388Z,1006.73
2018-03-02T15:55:01.029Z,1006.54
2018-03-02T16:00:01.064Z,1006.79
2018-03-02T16:05:01.023Z,1006.79
2018-03-02T16:10:01.048Z,1006.74
2018-03-02T16:15:01.036Z,1006.74
2018-03-02T16:20:01.121Z,1006.86
2018-03-02T16:30:01.066Z,1006.77
2018-03-02T16:35:01.081Z,1006.77
2018-03-02T16:40:01.075Z,1006.86
2018-03-02T16:45:01.069Z,1006.86
2018-03-02T16:50:01.109Z,1006.66
2018-03-02T17:00:01.145Z,1006.73
2018-03-02T17:05:01.073Z,1006.73
2018-03-02T17:15:01.083Z,1006.68
2018-03-02T17:30:01.101Z,1006.88
2018-03-02T17:35:01.137Z,1006.88
2018-03-02T17:45:01.077Z,1006.87
2018-03-02T17:50:01.098Z,1006.87
2018-03-02T18:00:01.486Z,1007.05
2018-03-02T18:15:01.160Z,1006.99
2018-03-02T18:30:01.067Z,1006.72
2018-03-02T18:45:02.046Z,1006.77
2018-03-02T18:50:01.990Z,1006.79
2018-03-02T19:00:01.091Z,1006.92
2018-03-02T19:05:01.033Z,1006.92
2018-03-02T19:15:02.065Z,1006.9
2018-03-02T19:25:01.104Z,1006.92
2018-03-02T19:30:02.023Z,1006.84
2018-03-02T19:40:02.100Z,1007.04
2018-03-02T19:45:01.054Z,1007.04
2018-03-02T20:00:01.107Z,1006.89
2018-03-02T20:15:03.255Z,1007.1
2018-03-02T20:25:01.119Z,1007.14
2018-03-02T20:30:04.193Z,1007.3
2018-03-02T20:40:01.083Z,1007.32
2018-03-02T20:45:01.034Z,1007.32
2018-03-02T20:55:01.413Z,1007.4
2018-03-02T21:00:01.141Z,1007.48
2018-03-02T21:05:01.065Z,1007.48
2018-03-02T21:15:01.124Z,1007.25
2018-03-02T21:30:02.059Z,1007.46
2018-03-02T21:45:01.122Z,1007.44
2018-03-02T21:50:01.116Z,1007.55
2018-03-02T22:00:01.135Z,1007.48
2018-03-02T22:05:01.052Z,1007.48
2018-03-02T22:15:02.076Z,1007.46
2018-03-02T22:25:02.005Z,1007.51
2018-03-02T22:30:01.107Z,1007.5
2018-03-02T22:45:01.077Z,1007.48
2018-03-02T23:00:01.120Z,1007.44
2018-03-02T23:10:03.140Z,1007.51
2018-03-02T23:15:01.074Z,1007.51
2018-03-02T23:30:02.098Z,1007.56
2018-03-02T23:45:01.046Z,1007.49
